Time;durP1;ratioP1;P1;durP2;ratioP2;P2;SDS_P1;SDS_P2;PMS_P1;PMS_P2;Temp;Humidity;BMP_temperature;BMP_pressure;BME280_temperature;BME280_humidity;BME280_pressure;Samples;Min_cycle;Max_cycle;Signal;HPM_P1;HPM_P2
2024/01/12 00:00:08;;;;;;;174.38;8.30;;;;;;;22.49;48.94;100704.25;7292255;19;130294;-38
2024/01/12 00:02:33;;;;;;;337.37;15.73;;;;;;;22.61;49.21;100727.75;7289056;19;130147;-39
2024/01/12 00:04:58;;;;;;;204.00;9.48;;;;;;;22.61;49.05;100726.94;7283780;19;131938;-39
2024/01/12 00:07:24;;;;;;;282.37;13.10;;;;;;;22.58;49.43;100728.00;7287359;19;130025;-38
2024/01/12 00:09:49;;;;;;;167.40;8.03;;;;;;;22.45;48.94;100694.94;7290653;19;131161;-41
2024/01/12 00:12:14;;;;;;;318.67;14.63;;;;;;;22.60;48.72;100730.50;7289790;19;129456;-40
2024/01/12 00:14:40;;;;;;;230.85;10.18;;;;;;;22.58;49.17;100732.38;7290137;19;131282;-42
2024/01/12 00:17:05;;;;;;;120.83;6.10;;;;;;;22.56;49.23;100734.31;7288299;19;129564;-37
2024/01/12 00:19:30;;;;;;;175.10;7.83;;;;;;;22.65;49.28;100746.69;7290155;19;129619;-38
2024/01/12 00:21:56;;;;;;;191.53;8.80;;;;;;;22.60;48.48;100736.56;7291978;19;130115;-39
2024/01/12 00:24:21;;;;;;;232.13;10.50;;;;;;;22.56;48.51;100736.94;7290898;19;130330;-42
2024/01/12 00:26:47;;;;;;;187.93;8.85;;;;;;;22.54;48.04;100746.69;7293549;19;132145;-40
2024/01/12 00:29:12;;;;;;;215.43;9.63;;;;;;;22.65;47.81;100738.81;7292583;19;130602;-35
2024/01/12 00:31:37;;;;;;;147.60;6.85;;;;;;;22.53;47.69;100713.56;7291817;19;131142;-39
2024/01/12 00:34:03;;;;;;;241.40;10.75;;;;;;;;;;7290663;19;129782;-38
2024/01/12 00:36:28;;;;;;;211.77;9.13;;;;;;;22.77;47.40;100743.13;7291220;19;129868;-40
2024/01/12 00:38:53;;;;;;;186.30;8.97;;;;;;;22.68;47.59;100741.22;7290772;19;129358;-39
2024/01/12 00:41:19;;;;;;;215.13;9.60;;;;;;;22.67;47.33;100747.41;7289132;19;131670;-38
2024/01/12 00:43:44;;;;;;;238.50;10.30;;;;;;;22.65;47.61;100739.69;7291406;19;130375;-39
2024/01/12 00:46:09;;;;;;;205.47;9.27;;;;;;;22.66;47.58;100745.75;7290578;19;130825;-40
2024/01/12 00:48:35;;;;;;;176.33;8.20;;;;;;;22.61;47.41;100745.28;7291596;19;129187;-38
2024/01/12 00:51:00;;;;;;;184.27;8.15;;;;;;;22.66;47.26;100745.75;7292301;19;130823;-41
2024/01/12 00:53:25;;;;;;;225.82;10.40;;;;;;;22.68;48.18;100746.44;7290855;19;129236;-38
2024/01/12 00:55:51;;;;;;;165.63;7.68;;;;;;;22.71;47.26;100748.88;7292960;19;129588;-37
2024/01/12 00:58:16;;;;;;;203.40;9.23;;;;;;;22.66;47.53;100757.06;7294886;19;130963;-39
2024/01/12 01:00:42;;;;;;;242.68;10.18;;;;;;;22.66;47.77;100756.25;7295247;19;129630;-39
2024/01/12 01:03:07;;;;;;;187.17;8.30;;;;;;;22.60;47.22;100751.44;7299566;19;130274;-39
2024/01/12 01:05:33;;;;;;;208.43;8.90;;;;;;;22.51;46.99;100715.47;7297379;19;129073;-41
2024/01/12 01:07:58;;;;;;;196.10;8.63;;;;;;;22.62;47.51;100739.06;7294223;19;129185;-36
2024/01/12 01:10:24;;;;;;;236.85;10.15;;;;;;;22.65;47.60;100736.22;7296816;19;130189;-37
2024/01/12 01:12:49;;;;;;;210.90;9.27;;;;;;;22.54;47.12;100728.34;7297107;19;129625;-40
2024/01/12 01:15:14;;;;;;;212.70;9.70;;;;;;;22.45;47.79;100729.00;7297434;19;129600;-41
2024/01/12 01:17:41;;;;;;;167.43;7.60;;;;;;;22.40;48.46;100733.75;7295758;19;130396;-35
2024/01/12 01:20:07;;;;;;;216.02;9.50;;;;;;;22.24;48.45;100707.91;7295531;19;130292;-38
2024/01/12 01:22:34;;;;;;;196.00;8.65;;;;;;;22.36;48.35;100722.69;7298475;19;129536;-42
2024/01/12 01:25:00;;;;;;;162.65;7.47;;;;;;;22.37;48.81;100724.38;7296164;19;129961;-38
2024/01/12 01:27:26;;;;;;;216.23;9.75;;;;;;;22.34;49.21;100724.59;7294607;19;133497;-40
2024/01/12 01:29:51;;;;;;;246.27;10.57;;;;;;;22.34;49.30;100729.00;7296605;19;130363;-40
2024/01/12 01:32:16;;;;;;;179.90;7.97;;;;;;;22.29;49.15;100726.75;7298336;19;130938;-40
2024/01/12 01:34:42;;;;;;;208.60;9.05;;;;;;;22.35;48.91;100725.41;7296623;19;129086;-37
2024/01/12 01:37:07;;;;;;;180.77;8.00;;;;;;;22.33;49.51;100722.09;7295761;19;130322;-39
2024/01/12 01:39:33;;;;;;;196.90;8.60;;;;;;;22.14;49.40;100703.47;7296401;19;130910;-42
2024/01/12 01:41:59;;;;;;;207.50;9.10;;;;;;;22.27;49.48;100733.88;7294702;19;130225;-41
2024/01/12 01:44:25;;;;;;;201.32;8.80;;;;;;;22.24;50.05;100728.88;7296774;19;131473;-41
2024/01/12 01:46:51;;;;;;;218.50;9.73;;;;;;;22.26;49.79;100726.13;7290019;19;131250;-38
2024/01/12 01:49:17;;;;;;;174.32;7.65;;;;;;;22.30;49.31;100732.78;7288660;19;130011;-38
2024/01/12 01:51:43;;;;;;;140.32;6.45;;;;;;;22.31;48.20;100729.25;7296834;19;130390;-36
2024/01/12 01:54:09;;;;;;;143.37;6.40;;;;;;;22.31;49.01;100734.47;7295580;19;129256;-38
2024/01/12 01:56:38;;;;;;;249.87;10.80;;;;;;;22.35;48.37;100730.66;7295660;19;130650;-42
2024/01/12 01:59:03;;;;;;;194.98;8.52;;;;;;;22.37;47.73;100728.75;7295880;19;129635;-37
2024/01/12 02:01:30;;;;;;;214.55;9.43;;;;;;;22.41;47.75;100725.78;7290518;19;129549;-41
2024/01/12 02:03:56;;;;;;;211.23;9.15;;;;;;;22.26;47.90;100705.19;7292254;19;130660;-40
2024/01/12 02:06:22;;;;;;;266.65;11.55;;;;;;;22.39;48.06;100729.50;7296004;19;131068;-39
2024/01/12 02:08:48;;;;;;;199.77;8.43;;;;;;;22.35;48.08;100725.41;7292700;19;130328;-38
2024/01/12 02:11:13;;;;;;;172.93;7.70;;;;;;;22.41;48.69;100722.34;7295869;19;134030;-40
2024/01/12 02:13:39;;;;;;;170.20;7.50;;;;;;;22.26;48.02;100699.94;7291662;19;129495;-36
2024/01/12 02:16:04;;;;;;;233.97;9.63;;;;;;;22.46;47.95;100722.84;7292313;19;129523;-37
2024/01/12 02:18:30;;;;;;;217.05;9.20;;;;;;;22.36;47.86;100721.88;7293824;19;131085;-40
2024/01/12 02:20:57;;;;;;;159.40;6.80;;;;;;;22.34;47.79;100731.63;7292164;19;129600;-42
2024/01/12 02:23:22;;;;;;;199.52;8.77;;;;;;;22.42;48.18;100724.84;7293709;19;129796;-37
2024/01/12 02:25:48;;;;;;;227.13;10.05;;;;;;;22.36;47.12;100725.31;7293695;19;129948;-38
2024/01/12 02:28:14;;;;;;;182.77;7.87;;;;;;;22.21;47.63;100692.44;7293750;19;130163;-42
2024/01/12 02:30:40;;;;;;;189.83;7.97;;;;;;;22.40;47.47;100718.88;7293992;19;129384;-34
2024/01/12 02:33:08;;;;;;;141.93;6.20;;;;;;;22.39;48.02;100721.63;7293879;19;129854;-37
2024/01/12 02:35:34;;;;;;;245.80;10.57;;;;;;;22.27;48.27;100722.56;7295007;19;131343;-39
2024/01/12 02:37:59;;;;;;;175.48;7.40;;;;;;;22.18;48.02;100718.03;7290658;19;130733;-35
2024/01/12 02:40:25;;;;;;;134.90;6.33;;;;;;;22.13;48.54;100720.97;7289755;19;129874;-40
2024/01/12 02:42:50;;;;;;;216.10;9.13;;;;;;;22.12;48.95;100715.84;7295848;19;130805;-38
2024/01/12 02:45:15;;;;;;;185.53;8.13;;;;;;;22.09;48.95;100713.47;7292486;19;130682;-38
2024/01/12 02:47:42;;;;;;;161.50;7.27;;;;;;;22.07;49.68;100716.22;7293469;19;129377;-36
2024/01/12 02:50:08;;;;;;;113.90;5.43;;;;;;;22.04;49.84;100699.88;7294845;19;130430;-40
2024/01/12 02:52:35;;;;;;;256.90;11.03;;;;;;;22.06;49.58;100711.09;7293442;19;130510;-38
2024/01/12 02:55:04;;;;;;;208.68;8.90;;;;;;;22.07;49.32;100712.75;7294433;19;129310;-35
2024/01/12 02:57:30;;;;;;;114.97;5.57;;;;;;;22.07;49.20;100707.50;7292341;19;130626;-41
2024/01/12 02:59:55;;;;;;;157.77;7.00;;;;;;;22.03;49.58;100709.56;7292619;19;130671;-36
2024/01/12 03:02:21;;;;;;;236.65;10.05;;;;;;;22.03;49.52;100711.31;7294581;19;129205;-38
2024/01/12 03:04:46;;;;;;;155.30;6.63;;;;;;;22.02;49.89;100707.03;7293503;19;131209;-39
2024/01/12 03:07:11;;;;;;;176.23;7.70;;;;;;;22.01;49.34;100703.59;7293997;19;130793;-40
2024/01/12 03:09:37;;;;;;;179.87;7.73;;;;;;;22.08;48.91;100698.72;7293278;19;129689;-35
2024/01/12 03:12:03;;;;;;;170.80;7.27;;;;;;;21.95;48.76;100664.75;7293935;19;131276;-40
2024/01/12 03:14:28;;;;;;;185.23;8.40;;;;;;;22.16;48.55;100694.56;7293257;19;129564;-38
2024/01/12 03:16:54;;;;;;;191.15;8.23;;;;;;;22.14;47.88;100698.25;7293746;19;131413;-40
2024/01/12 03:19:19;;;;;;;171.05;7.07;;;;;;;22.17;47.81;100696.22;7287239;19;129931;-38
2024/01/12 03:21:44;;;;;;;217.80;9.50;;;;;;;22.18;47.65;100694.47;7294276;19;132018;-40
2024/01/12 03:24:10;;;;;;;205.65;8.73;;;;;;;22.18;48.32;100691.84;7294335;19;131773;-39
2024/01/12 03:26:37;;;;;;;194.07;8.67;;;;;;;22.21;48.63;100696.84;7292732;19;129930;-41
2024/01/12 03:29:02;;;;;;;180.48;7.70;;;;;;;22.20;47.73;100693.38;7294940;19;132508;-41
2024/01/12 03:31:27;;;;;;;237.38;10.32;;;;;;;22.06;48.39;100667.41;7293430;19;129636;-34
2024/01/12 03:33:53;;;;;;;181.35;7.95;;;;;;;22.20;47.74;100682.91;7293922;19;130043;-38
2024/01/12 03:36:19;;;;;;;118.40;5.00;;;;;;;22.23;47.61;100692.31;7292292;19;129783;-41
2024/01/12 03:38:45;;;;;;;151.77;6.43;;;;;;;22.19;47.68;100689.09;7293378;19;129669;-41
2024/01/12 03:41:11;;;;;;;174.60;7.30;;;;;;;22.18;48.07;100691.84;7292533;19;129661;-36
2024/01/12 03:43:36;;;;;;;137.77;6.13;;;;;;;22.09;47.73;100669.78;7292815;19;129108;-38
2024/01/12 03:46:01;;;;;;;202.63;8.40;;;;;;;22.19;47.93;100683.00;7282345;19;131683;-39
2024/01/12 03:48:27;;;;;;;307.37;13.10;;;;;;;22.08;48.17;100681.19;7288264;19;130968;-39
2024/01/12 03:50:53;;;;;;;121.93;5.38;;;;;;;22.06;48.24;100683.13;7294001;19;129306;-38
2024/01/12 03:53:18;;;;;;;202.50;8.47;;;;;;;21.96;48.78;100677.72;7288664;19;131008;-35
2024/01/12 03:55:43;;;;;;;220.40;9.05;;;;;;;21.92;48.74;100681.53;7288150;19;131226;-36
2024/01/12 03:58:09;;;;;;;241.77;9.80;;;;;;;21.92;49.43;100692.03;7287560;19;131250;-40
2024/01/12 04:00:34;;;;;;;256.13;10.93;;;;;;;21.91;49.71;100684.28;7286314;19;129835;-41
2024/01/12 04:02:59;;;;;;;141.45;6.22;;;;;;;21.91;49.54;100677.25;7284938;19;129736;-35
2024/01/12 04:05:25;;;;;;;189.55;7.97;;;;;;;21.90;49.88;100698.31;7292292;19;131060;-39
2024/01/12 04:07:50;;;;;;;221.65;9.23;;;;;;;21.76;49.94;100670.56;7293042;19;133274;-38
2024/01/12 04:10:16;;;;;;;177.13;7.27;;;;;;;21.82;49.44;100684.94;7292831;19;130197;-38
2024/01/12 04:12:41;;;;;;;170.48;7.45;;;;;;;21.70;49.45;100670.97;7291170;19;129702;-41
2024/01/12 04:15:10;;;;;;;247.65;10.30;;;;;;;21.82;49.69;100688.41;7291448;19;130219;-37
2024/01/12 04:17:35;;;;;;;221.10;9.32;;;;;;;21.83;49.66;100690.06;7292166;19;131133;-39
2024/01/12 04:20:01;;;;;;;166.38;7.10;;;;;;;21.83;49.69;100687.44;7288571;19;129730;-35
2024/01/12 04:22:26;;;;;;;150.87;6.37;;;;;;;21.83;50.08;100686.66;7291393;19;129426;-36
2024/01/12 04:24:51;;;;;;;243.15;9.60;;;;;;;21.84;49.64;100694.38;7291355;19;131501;-40
2024/01/12 04:27:17;;;;;;;194.67;8.43;;;;;;;21.89;49.27;100696.66;7292849;19;132293;-36
2024/01/12 04:29:42;;;;;;;237.95;10.63;;;;;;;21.92;48.49;100686.78;7287591;19;130846;-41
2024/01/12 04:32:07;;;;;;;191.57;8.02;;;;;;;22.05;49.27;100685.88;7295400;19;130168;-33
2024/01/12 04:34:36;;;;;;;202.27;8.80;;;;;;;22.06;48.96;100677.88;7292367;19;130877;-37
2024/01/12 04:37:02;;;;;;;135.20;5.68;;;;;;;22.02;48.45;100688.69;7292295;19;130435;-40
2024/01/12 04:39:27;;;;;;;200.13;8.30;;;;;;;22.03;48.04;100682.53;7294939;19;129891;-35
2024/01/12 04:41:52;;;;;;;242.23;9.52;;;;;;;22.01;47.82;100679.19;7284506;19;129658;-37
2024/01/12 04:44:18;;;;;;;221.95;9.32;;;;;;;22.05;48.13;100670.16;7289253;19;130170;-40
2024/01/12 04:46:43;;;;;;;277.35;11.30;;;;;;;21.90;48.37;100646.78;7288224;19;130123;-41
2024/01/12 04:49:09;;;;;;;240.27;9.90;;;;;;;21.98;47.99;100662.75;7297490;19;131376;-41
2024/01/12 04:51:34;;;;;;;180.97;7.73;;;;;;;22.06;48.06;100664.78;7297831;19;129035;-36
2024/01/12 04:54:00;;;;;;;145.80;6.23;;;;;;;22.02;47.95;100654.66;7296351;19;130188;-39
2024/01/12 04:56:25;;;;;;;212.55;8.93;;;;;;;22.04;47.67;100658.00;7296869;19;131107;-37
2024/01/12 04:58:50;;;;;;;241.73;9.57;;;;;;;22.05;47.74;100659.69;7298174;19;133080;-38
2024/01/12 05:01:16;;;;;;;173.18;7.50;;;;;;;22.01;47.64;100659.06;7294303;19;132265;-38
2024/01/12 05:03:42;;;;;;;172.77;8.13;;;;;;;21.73;48.58;100638.50;7295708;19;131278;-34
2024/01/12 05:06:08;;;;;;;119.95;5.25;;;;;;;21.84;48.77;100678.66;7298291;19;130477;-39
2024/01/12 05:08:34;;;;;;;215.35;8.82;;;;;;;21.69;48.90;100653.59;7296339;19;130060;-41
2024/01/12 05:10:59;;;;;;;173.60;7.23;;;;;;;21.60;49.43;100643.81;7297409;19;131405;-40
2024/01/12 05:13:25;;;;;;;179.82;7.50;;;;;;;21.75;49.35;100676.69;7296250;19;131118;-35
2024/01/12 05:15:50;;;;;;;138.95;5.85;;;;;;;21.71;49.84;100677.88;7295721;19;130051;-38
2024/01/12 05:18:16;;;;;;;199.10;8.03;;;;;;;21.71;49.77;100672.66;7292290;19;129703;-41
2024/01/12 05:20:41;;;;;;;179.52;7.55;;;;;;;21.70;50.18;100676.19;7296775;19;130038;-40
2024/01/12 05:23:07;;;;;;;226.00;9.52;;;;;;;21.70;49.60;100683.25;7292356;19;131361;-38
2024/01/12 05:25:32;;;;;;;273.55;11.35;;;;;;;21.69;49.72;100677.16;7289834;19;130286;-36
2024/01/12 05:27:57;;;;;;;205.07;8.40;;;;;;;21.69;50.10;100679.78;7296547;19;129681;-40
2024/01/12 05:30:22;;;;;;;201.23;8.23;;;;;;;21.67;50.37;100676.44;7294198;19;129449;-39
2024/01/12 05:32:48;;;;;;;355.70;14.98;;;;;;;21.68;49.92;100683.31;7292970;19;130923;-39
2024/01/12 05:35:13;;;;;;;191.40;7.63;;;;;;;21.67;49.88;100691.28;7293381;19;131099;-38
2024/01/12 05:37:38;;;;;;;338.20;14.52;;;;;;;21.75;49.72;100692.41;7288467;19;130411;-35
2024/01/12 05:40:04;;;;;;;230.97;9.50;;;;;;;21.80;49.31;100697.31;7294101;19;132207;-39
2024/01/12 05:42:30;;;;;;;210.37;9.10;;;;;;;21.81;48.91;100699.84;7293697;19;130374;-39
2024/01/12 05:44:55;;;;;;;190.07;7.38;;;;;;;21.84;48.90;100694.38;7295164;19;129694;-39
2024/01/12 05:47:20;;;;;;;172.27;7.37;;;;;;;21.85;49.20;100693.41;7296052;19;131597;-40
2024/01/12 05:49:46;;;;;;;245.80;10.38;;;;;;;21.87;48.16;100688.06;7296601;19;130747;-37
2024/01/12 05:52:11;;;;;;;194.60;7.73;;;;;;;21.88;48.73;100682.72;7294806;19;130265;-40
2024/01/12 05:54:36;;;;;;;109.53;5.03;;;;;;;21.88;49.00;100680.09;7294878;19;129298;-42
2024/01/12 05:57:02;;;;;;;224.57;9.00;;;;;;;21.86;48.54;100668.09;7293011;19;129167;-39
2024/01/12 05:59:27;;;;;;;207.88;8.63;;;;;;;21.82;48.36;100662.25;7295459;19;129640;-35
2024/01/12 06:01:54;;;;;;;101.05;4.32;;;;;;;21.87;48.65;100673.19;7297309;19;130272;-39
2024/01/12 06:04:19;;;;;;;188.55;7.57;;;;;;;21.87;47.92;100681.06;7294708;19;131571;-39
2024/01/12 06:06:46;;;;;;;299.43;12.03;;;;;;;21.91;48.75;100684.28;7293239;19;129335;-39
2024/01/12 06:09:11;;;;;;;165.38;6.65;;;;;;;21.86;47.83;100686.41;7295351;19;129617;-37
2024/01/12 06:11:41;;;;;;;165.73;6.97;;;;;;;21.91;48.30;100700.81;7296535;19;130429;-41
2024/01/12 06:14:07;;;;;;;201.30;8.27;;;;;;;21.85;47.92;100696.03;7293121;19;131313;-41
2024/01/12 06:16:32;;;;;;;172.35;7.00;;;;;;;21.64;48.35;100681.06;7287259;19;130754;-39
2024/01/12 06:18:57;;;;;;;186.27;7.70;;;;;;;21.65;48.62;100694.03;7294497;19;129654;-36
2024/01/12 06:21:23;;;;;;;185.05;7.70;;;;;;;21.62;49.17;100704.72;7292941;19;134429;-40
2024/01/12 06:23:48;;;;;;;218.73;9.32;;;;;;;21.60;49.27;100693.53;7294963;19;131827;-39
2024/01/12 06:26:14;;;;;;;236.20;9.57;;;;;;;21.46;49.73;100670.19;7294744;19;129588;-40
2024/01/12 06:28:39;;;;;;;140.13;6.05;;;;;;;21.55;49.59;100693.03;7295930;19;129126;-36
2024/01/12 06:31:04;;;;;;;180.10;7.38;;;;;;;21.57;49.96;100699.00;7294229;19;129902;-40
2024/01/12 06:33:31;;;;;;;122.30;5.22;;;;;;;21.55;50.26;100693.03;7298404;19;132750;-40
2024/01/12 06:35:57;;;;;;;236.68;9.45;;;;;;;21.52;49.96;100674.09;7295929;19;131328;-38
2024/01/12 06:38:22;;;;;;;213.87;9.07;;;;;;;21.54;50.23;100686.16;7293629;19;129123;-38
2024/01/12 06:40:47;;;;;;;188.27;8.15;;;;;;;21.48;50.29;100681.38;7293547;19;134940;-38
2024/01/12 06:43:13;;;;;;;170.68;7.25;;;;;;;21.51;49.97;100691.59;7293227;19;130846;-38
2024/01/12 06:45:38;;;;;;;225.45;9.07;;;;;;;21.49;50.84;100667.31;7293363;19;130090;-38
2024/01/12 06:48:04;;;;;;;149.85;6.68;;;;;;;21.54;50.13;100691.38;7294356;19;129107;-38
2024/01/12 06:50:29;;;;;;;172.32;7.35;;;;;;;21.48;49.46;100696.22;7295246;19;132078;-38
2024/01/12 06:52:56;;;;;;;172.43;7.20;;;;;;;21.48;49.46;100702.31;7292579;19;130713;-38
2024/01/12 06:55:22;;;;;;;208.82;8.80;;;;;;;21.45;49.48;100697.25;7295603;19;132141;-38
2024/01/12 06:57:51;;;;;;;187.70;8.32;;;;;;;21.51;49.69;100706.47;7294083;19;129631;-38
2024/01/12 07:00:17;;;;;;;189.05;8.15;;;;;;;21.47;49.23;100695.38;7294041;19;129277;-38
2024/01/12 07:02:42;;;;;;;254.13;10.32;;;;;;;21.54;49.31;100707.06;7292895;19;130852;-38
2024/01/12 07:05:08;;;;;;;156.60;6.32;;;;;;;21.61;49.10;100705.69;7294761;19;129411;-38
2024/01/12 07:07:33;;;;;;;75.10;3.30;;;;;;;21.68;48.54;100704.25;7291666;19;129090;-38
2024/01/12 07:09:59;;;;;;;166.02;7.03;;;;;;;21.63;48.04;100701.19;7294516;19;130159;-38
2024/01/12 07:12:24;;;;;;;246.40;9.90;;;;;;;21.68;48.22;100703.44;7293866;19;132488;-38
2024/01/12 07:14:50;;;;;;;347.63;14.85;;;;;;;21.64;47.93;100691.53;7288534;19;132331;-38
2024/01/12 07:17:15;;;;;;;129.70;5.85;;;;;;;21.60;48.10;100685.69;7288049;19;130303;-38
2024/01/12 07:19:43;;;;;;;143.32;6.10;;;;;;;21.72;48.84;100695.25;7290299;19;130479;-38
2024/01/12 07:22:09;;;;;;;163.77;6.63;;;;;;;21.70;47.92;100699.75;7292629;19;131472;-38
2024/01/12 07:24:34;;;;;;;179.82;7.55;;;;;;;21.68;47.67;100695.59;7293996;19;132427;-38
2024/01/12 07:26:59;;;;;;;154.52;6.53;;;;;;;21.66;47.72;100693.09;7293177;19;130032;-38
2024/01/12 07:29:25;;;;;;;195.23;7.90;;;;;;;21.69;47.96;100694.63;7294391;19;130196;-38
2024/01/12 07:31:50;;;;;;;251.02;10.23;;;;;;;21.70;48.86;100699.75;7293768;19;130292;-38
2024/01/12 07:34:17;;;;;;;205.53;8.33;;;;;;;21.57;48.56;100696.38;7294372;19;129628;-38
2024/01/12 07:36:42;;;;;;;;;;;;;;;21.49;49.67;100696.09;7291767;19;129576;-38
2024/01/12 07:39:08;;;;;;;161.13;6.97;;;;;;;21.47;49.14;100692.75;7293361;19;129281;-38
2024/01/12 07:41:33;;;;;;;189.37;7.80;;;;;;;21.43;49.59;100704.41;7291812;19;130845;-38
2024/01/12 07:43:58;;;;;;;184.85;7.90;;;;;;;21.42;49.90;100715.81;7293911;19;129087;-38
2024/01/12 07:46:24;;;;;;;199.73;7.97;;;;;;;21.28;49.45;100695.06;7294638;19;131537;-38
2024/01/12 07:48:50;;;;;;;213.13;8.88;;;;;;;21.44;50.38;100710.47;7292623;19;133159;-38
2024/01/12 07:51:16;;;;;;;210.85;8.77;;;;;;;21.39;49.68;100713.41;7294527;19;130518;-38
2024/01/12 07:53:42;;;;;;;189.80;7.57;;;;;;;21.26;50.15;100696.94;7293819;19;129926;-38
2024/01/12 07:56:07;;;;;;;181.68;7.63;;;;;;;21.37;50.30;100711.88;7295247;19;131507;-38
2024/01/12 07:58:33;;;;;;;318.20;14.00;;;;;;;21.37;50.58;100712.69;7283773;19;130403;-38
2024/01/12 08:00:59;;;;;;;94.18;4.13;;;;;;;21.36;50.76;100713.66;7292451;19;131207;-39
2024/01/12 08:03:24;;;;;;;148.20;6.27;;;;;;;21.23;50.81;100686.72;7291396;19;130392;-38
2024/01/12 08:05:50;;;;;;;194.90;8.23;;;;;;;21.44;50.13;100706.06;7284477;19;130853;-38
2024/01/12 08:08:16;;;;;;;155.80;6.13;;;;;;;21.45;49.16;100707.72;7288779;19;130701;-38
2024/01/12 08:10:41;;;;;;;192.23;7.73;;;;;;;21.52;49.28;100708.97;7291394;19;132867;-38
2024/01/12 08:13:07;;;;;;;169.93;7.13;;;;;;;21.52;48.58;100710.72;7289414;19;130064;-38
2024/01/12 08:15:32;;;;;;;212.93;8.90;;;;;;;21.54;48.72;100712.31;7285503;19;129389;-38
2024/01/12 08:17:58;;;;;;;183.35;7.65;;;;;;;21.56;48.28;100705.19;7286546;19;130027;-38
2024/01/12 08:20:23;;;;;;;179.17;7.23;;;;;;;21.43;48.74;100688.72;7287239;19;130277;-38
2024/01/12 08:22:48;;;;;;;174.80;7.18;;;;;;;21.55;48.54;100708.72;7291431;19;131125;-39
2024/01/12 08:25:14;;;;;;;264.13;10.55;;;;;;;21.57;48.29;100712.06;7284303;19;132263;-38
2024/01/12 08:27:39;;;;;;;173.35;6.90;;;;;;;21.56;48.73;100715.66;7291866;19;130309;-38
2024/01/12 08:30:07;;;;;;;157.03;6.63;;;;;;;21.55;49.01;100711.34;7292359;19;130420;-38
2024/01/12 08:32:32;;;;;;;196.32;7.80;;;;;;;21.55;48.09;100708.72;7293476;19;132569;-38
2024/01/12 08:34:58;;;;;;;197.75;8.07;;;;;;;21.44;48.06;100698.22;7291457;19;130147;-38
2024/01/12 08:37:23;;;;;;;168.10;6.53;;;;;;;21.55;48.32;100715.78;7291929;19;131074;-38
2024/01/12 08:39:48;;;;;;;206.88;8.57;;;;;;;21.55;48.38;100713.16;7291577;19;130480;-38
2024/01/12 08:42:14;;;;;;;236.80;9.60;;;;;;;21.51;48.58;100707.31;7291887;19;129149;-38
2024/01/12 08:44:39;;;;;;;196.85;7.97;;;;;;;21.60;49.09;100719.69;7292734;19;133027;-38
2024/01/12 08:47:05;;;;;;;152.77;6.43;;;;;;;21.56;48.27;100713.03;7291077;19;130356;-38
2024/01/12 08:49:30;;;;;;;65.68;3.03;;;;;;;21.45;48.28;100702.50;7292519;19;130980;-38
2024/01/12 08:51:55;;;;;;;249.65;10.27;;;;;;;21.37;48.86;100704.84;7290933;19;129267;-38
2024/01/12 08:54:21;;;;;;;225.45;9.30;;;;;;;21.30;49.46;100698.41;7290232;19;130120;-39
2024/01/12 08:56:47;;;;;;;157.15;6.57;;;;;;;21.30;50.01;100697.56;7292490;19;131698;-38
2024/01/12 08:59:12;;;;;;;162.73;6.82;;;;;;;21.30;50.11;100708.88;7291008;19;132866;-38
2024/01/12 09:01:38;;;;;;;237.85;9.70;;;;;;;21.29;50.17;100707.19;7290910;19;130096;-38
2024/01/12 09:04:03;;;;;;;154.80;6.53;;;;;;;21.30;49.83;100702.78;7290850;19;129797;-38
2024/01/12 09:06:29;;;;;;;164.53;6.57;;;;;;;21.30;50.51;100703.63;7291029;19;130202;-38
2024/01/12 09:08:55;;;;;;;208.80;8.93;;;;;;;21.17;50.10;100676.66;7284951;19;130418;-38
2024/01/12 09:11:21;;;;;;;231.85;9.20;;;;;;;21.26;50.57;100690.88;7288983;19;129710;-39
2024/01/12 09:13:47;;;;;;;351.73;14.82;;;;;;;21.23;50.13;100697.19;7286318;19;133055;-38
2024/01/12 09:16:13;;;;;;;181.23;7.10;;;;;;;21.24;50.89;100709.28;7288227;19;133051;-38
2024/01/12 09:18:39;;;;;;;176.02;7.07;;;;;;;21.22;50.40;100705.94;7295974;19;131889;-38
2024/01/12 09:21:05;;;;;;;;;;;;;;;21.32;51.09;100701.72;7295172;19;131631;-38
2024/01/12 09:23:31;;;;;;;205.73;8.18;;;;;;;21.30;49.36;100698.41;7293442;19;129863;-38
2024/01/12 09:25:56;;;;;;;226.65;9.23;;;;;;;21.40;49.12;100702.00;7290209;19;130147;-38
2024/01/12 09:28:21;;;;;;;210.07;8.13;;;;;;;21.40;49.40;100688.91;7295397;19;130501;-38
2024/01/12 09:30:47;;;;;;;216.32;8.93;;;;;;;21.26;49.11;100665.56;7292652;19;132051;-38
2024/01/12 09:33:14;;;;;;;331.17;13.37;;;;;;;21.42;49.16;100687.03;7293868;19;129400;-36
2024/01/12 09:35:39;;;;;;;194.32;7.85;;;;;;;21.43;48.71;100688.72;7297196;19;132191;-39
2024/01/12 09:38:05;;;;;;;218.40;9.10;;;;;;;21.47;49.27;100690.16;7291503;19;131248;-38
2024/01/12 09:40:31;;;;;;;128.73;5.10;;;;;;;21.47;48.73;100692.75;7294097;19;130646;-39
2024/01/12 09:42:59;;;;;;;229.60;9.43;;;;;;;21.49;49.05;100690.88;7295151;19;129659;-38
2024/01/12 09:45:25;;;;;;;201.35;7.93;;;;;;;21.49;48.56;100685.66;7294945;19;130208;-39
2024/01/12 09:47:52;;;;;;;140.20;5.68;;;;;;;21.48;48.05;100691.84;7291275;19;130445;-38
2024/01/12 09:50:21;;;;;;;201.43;7.80;;;;;;;21.45;48.45;100686.81;7299178;19;133191;-39
2024/01/12 09:52:50;;;;;;;252.30;9.77;;;;;;;21.45;49.46;100692.03;7294860;19;131248;-39
2024/01/12 09:55:15;;;;;;;177.35;7.15;;;;;;;21.44;48.38;100697.38;7296238;19;129811;-39
2024/01/12 09:57:43;;;;;;;128.05;5.10;;;;;;;21.36;48.46;100682.25;7293992;19;130254;-39
2024/01/12 10:00:11;;;;;;;234.48;9.55;;;;;;;21.45;47.92;100692.03;7296827;19;129120;-39
2024/01/12 10:02:36;;;;;;;279.35;10.75;;;;;;;21.45;48.12;100691.22;7296965;19;129014;-39
2024/01/12 10:05:02;;;;;;;200.00;8.18;;;;;;;21.31;48.83;100694.84;7298124;19;131467;-38
2024/01/12 10:07:27;;;;;;;216.52;8.80;;;;;;;21.26;49.52;100694.34;7294034;19;130306;-39
2024/01/12 10:09:53;;;;;;;149.27;5.93;;;;;;;21.22;49.93;100695.47;7295853;19;129693;-39
2024/01/12 10:12:18;;;;;;;118.85;4.95;;;;;;;21.19;49.58;100689.66;7296618;19;129549;-39
2024/01/12 10:14:43;;;;;;;175.40;6.88;;;;;;;21.17;50.30;100686.31;7298057;19;132944;-39
2024/01/12 10:17:11;;;;;;;189.37;7.87;;;;;;;21.17;49.87;100691.56;7296279;19;131047;-40
2024/01/12 10:19:37;;;;;;;223.13;8.75;;;;;;;21.17;50.46;100697.59;7295714;19;129554;-38
2024/01/12 10:22:02;;;;;;;97.90;4.18;;;;;;;21.17;50.17;100691.56;7292254;19;131730;-39
2024/01/12 10:24:30;;;;;;;182.10;7.60;;;;;;;21.16;50.41;100692.47;7296011;19;130190;-39
2024/01/12 10:27:00;;;;;;;180.38;7.32;;;;;;;21.14;50.96;100676.91;7292646;19;132192;-39
2024/01/12 10:29:26;;;;;;;126.95;5.10;;;;;;;21.12;50.68;100676.16;7294971;19;131091;-38
2024/01/12 10:31:51;;;;;;;204.40;8.25;;;;;;;21.13;50.78;100675.25;7297194;19;130373;-39
2024/01/12 10:34:16;;;;;;;185.15;7.55;;;;;;;21.13;50.35;100664.78;7295118;19;129915;-39
2024/01/12 10:36:42;;;;;;;102.47;4.22;;;;;;;21.13;50.52;100649.09;7295098;19;130402;-38
2024/01/12 10:39:09;;;;;;;229.30;9.30;;;;;;;21.27;49.91;100656.75;7294348;19;129031;-38
2024/01/12 10:41:35;;;;;;;172.25;6.72;;;;;;;21.26;49.17;100655.09;7294755;19;129434;-38
2024/01/12 10:44:06;;;;;;;126.63;5.43;;;;;;;21.28;48.87;100655.84;7295648;19;131139;-43
2024/01/12 10:46:37;;;;;;;92.25;3.72;;;;;;;21.29;48.74;100656.63;7295227;19;133595;-39
2024/01/12 10:49:11;;;;;;;256.48;10.32;;;;;;;21.29;49.29;100656.63;7295292;19;129613;-38
2024/01/12 10:51:38;;;;;;;229.43;9.13;;;;;;;21.13;49.22;100637.78;7296721;19;132580;-39
2024/01/12 10:54:23;;;;;;;184.10;7.63;;;;;;;21.26;49.82;100657.72;7294896;19;130328;-38